PWSweather.com
Personal Weather Stations
Station Observations
31648434
Juan Xiii, San Fernando Del Valle De CatamarcaAR 4700

Juan XiiiSan Fernando Del Valle De CatamarcaAR 4700

Lat: -28.467778, Lon: -65.795278

Elevation: 578

Station Type: WH1081

Latest ConditionsUpdated 3:52:00 AM GMT-03:57 Sunday, Jul 23, 2017
Currently Today's Max Today's Min Today's Average
Temperature 55.0°F12.8°C 58.6°F14.8°C 53.8°F12.1°C 55.5°F13.1°C
Dew Point 39.2°F4.0°C 40.8°F4.9°C 38.0°F3.3°C 39.3°F4.1°C
Winds 1.6 mph W2.6 kmh W 3.1 mph NW5.0 kmh NW - 1.0 mph 1.6 kmh
Wind Gusts 4.5 mph7.2 kmh 6.0 mph9.7 kmh - -
Humidity 55% 58% 49% 54%
Pressure 29.60 in1002.4 mb 29.64 in1003.7 mb 29.59 in1002.0 mb -
Hour Temp Dew Point Humidity Winds Wind Gusts Pressure Precip Precip Rate Daily Precip Total
03:52 AM 55.0°F12.8°C 39.2°F4.0°C 55% 1.6 mph W2.6 kmh W 4.5 mph7.2 kmh 29.60 in1002.4 mb 0.00 in0.0 mm 0.00 in0.0 mm 0.00 in0.0 mm
03:51 AM 54.9°F12.7°C 39.0°F3.9°C 55% 1.6 mph W2.6 kmh W 4.5 mph7.2 kmh 29.60 in1002.4 mb 0.00 in0.0 mm 0.00 in0.0 mm 0.00 in0.0 mm
03:50 AM 55.0°F12.8°C 39.2°F4.0°C 55% 1.6 mph W2.6 kmh W 4.5 mph7.2 kmh 29.60 in1002.4 mb 0.00 in0.0 mm 0.00 in0.0 mm 0.00 in0.0 mm
03:49 AM 55.0°F12.8°C 39.2°F4.0°C 55% 2.2 mph W3.5 kmh W 4.5 mph7.2 kmh 29.60 in1002.4 mb 0.00 in0.0 mm 0.00 in0.0 mm 0.00 in0.0 mm
03:48 AM 54.9°F12.7°C 39.0°F3.9°C 55% 2.2 mph W3.5 kmh W 4.5 mph7.2 kmh 29.60 in1002.4 mb 0.00 in0.0 mm 0.00 in0.0 mm 0.00 in0.0 mm
03:47 AM 54.9°F12.7°C 39.0°F3.9°C 55% 2.2 mph W3.5 kmh W 4.5 mph7.2 kmh 29.60 in1002.4 mb 0.00 in0.0 mm 0.00 in0.0 mm 0.00 in0.0 mm
03:46 AM 54.9°F12.7°C 39.0°F3.9°C 55% 2.2 mph W3.5 kmh W 4.5 mph7.2 kmh 29.60 in1002.4 mb 0.00 in0.0 mm 0.00 in0.0 mm 0.00 in0.0 mm
03:45 AM 54.9°F12.7°C 39.0°F3.9°C 55% 2.2 mph WNW3.5 kmh WNW 4.5 mph7.2 kmh 29.60 in1002.4 mb 0.00 in0.0 mm 0.00 in0.0 mm 0.00 in0.0 mm
03:44 AM 54.9°F12.7°C 39.0°F3.9°C 55% 3.1 mph W5.0 kmh W 4.5 mph7.2 kmh 29.60 in1002.4 mb 0.00 in0.0 mm 0.00 in0.0 mm 0.00 in0.0 mm
03:43 AM 54.9°F12.7°C 39.0°F3.9°C 55% 2.2 mph W3.5 kmh W 4.5 mph7.2 kmh 29.60 in1002.4 mb 0.00 in0.0 mm 0.00 in0.0 mm 0.00 in0.0 mm
03:42 AM 54.7°F12.6°C 38.8°F3.8°C 55% 2.2 mph W3.5 kmh W 4.5 mph7.2 kmh 29.59 in1002.0 mb 0.00 in0.0 mm 0.00 in0.0 mm 0.00 in0.0 mm
03:41 AM 54.7°F12.6°C 38.8°F3.8°C 55% 2.2 mph W3.5 kmh W 4.5 mph7.2 kmh 29.59 in1002.0 mb 0.00 in0.0 mm 0.00 in0.0 mm 0.00 in0.0 mm
03:40 AM 54.7°F12.6°C 38.4°F3.6°C 54% 1.6 mph W2.6 kmh W 4.5 mph7.2 kmh 29.59 in1002.0 mb 0.00 in0.0 mm 0.00 in0.0 mm 0.00 in0.0 mm
03:39 AM 54.7°F12.6°C 38.4°F3.6°C 54% 1.6 mph W2.6 kmh W 4.5 mph7.2 kmh 29.59 in1002.0 mb 0.00 in0.0 mm 0.00 in0.0 mm 0.00 in0.0 mm
03:38 AM 54.7°F12.6°C 38.4°F3.6°C 54% 0.7 mph W1.1 kmh W 4.5 mph7.2 kmh 29.59 in1002.0 mb 0.00 in0.0 mm 0.00 in0.0 mm 0.00 in0.0 mm
03:37 AM 54.5°F12.5°C 38.2°F3.4°C 54% 0.7 mph W1.1 kmh W 4.5 mph7.2 kmh 29.59 in1002.0 mb 0.00 in0.0 mm 0.00 in0.0 mm 0.00 in0.0 mm
03:36 AM 54.5°F12.5°C 38.2°F3.4°C 54% 1.6 mph WSW2.6 kmh WSW 4.5 mph7.2 kmh 29.59 in1002.0 mb 0.00 in0.0 mm 0.00 in0.0 mm 0.00 in0.0 mm
03:35 AM 54.5°F12.5°C 38.2°F3.4°C 54% 1.6 mph WSW2.6 kmh WSW 4.5 mph7.2 kmh 29.59 in1002.0 mb 0.00 in0.0 mm 0.00 in0.0 mm 0.00 in0.0 mm
03:34 AM 54.3°F12.4°C 38.0°F3.3°C 54% 2.2 mph WSW3.5 kmh WSW 4.5 mph7.2 kmh 29.60 in1002.4 mb 0.00 in0.0 mm 0.00 in0.0 mm 0.00 in0.0 mm
03:33 AM 54.3°F12.4°C 38.5°F3.6°C 55% 2.2 mph WSW3.5 kmh WSW 4.5 mph7.2 kmh 29.59 in1002.0 mb 0.00 in0.0 mm 0.00 in0.0 mm 0.00 in0.0 mm
03:32 AM 54.3°F12.4°C 38.5°F3.6°C 55% 3.1 mph W5.0 kmh W 4.5 mph7.2 kmh 29.59 in1002.0 mb 0.00 in0.0 mm 0.00 in0.0 mm 0.00 in0.0 mm
03:31 AM 54.3°F12.4°C 38.5°F3.6°C 55% 2.2 mph W3.5 kmh W 3.8 mph6.1 kmh 29.60 in1002.4 mb 0.00 in0.0 mm 0.00 in0.0 mm 0.00 in0.0 mm
03:30 AM 54.1°F12.3°C 38.3°F3.5°C 55% 2.2 mph W3.5 kmh W 3.8 mph6.1 kmh 29.60 in1002.4 mb 0.00 in0.0 mm 0.00 in0.0 mm 0.00 in0.0 mm
03:29 AM 54.1°F12.3°C 38.3°F3.5°C 55% 1.6 mph W2.6 kmh W 3.8 mph6.1 kmh 29.59 in1002.0 mb 0.00 in0.0 mm 0.00 in0.0 mm 0.00 in0.0 mm
03:28 AM 54.1°F12.3°C 38.3°F3.5°C 55% 2.2 mph W3.5 kmh W 3.8 mph6.1 kmh 29.60 in1002.4 mb 0.00 in0.0 mm 0.00 in0.0 mm 0.00 in0.0 mm
03:27 AM 54.1°F12.3°C 38.3°F3.5°C 55% 1.6 mph W2.6 kmh W 3.8 mph6.1 kmh 29.59 in1002.0 mb 0.00 in0.0 mm 0.00 in0.0 mm 0.00 in0.0 mm
03:26 AM 54.0°F12.2°C 38.2°F3.4°C 55% 1.6 mph W2.6 kmh W 3.8 mph6.1 kmh 29.59 in1002.0 mb 0.00 in0.0 mm 0.00 in0.0 mm 0.00 in0.0 mm
03:25 AM 54.0°F12.2°C 38.6°F3.7°C 56% 2.2 mph W3.5 kmh W 3.8 mph6.1 kmh 29.59 in1002.0 mb 0.00 in0.0 mm 0.00 in0.0 mm 0.00 in0.0 mm
03:24 AM 54.0°F12.2°C 38.6°F3.7°C 56% 2.2 mph W3.5 kmh W 3.8 mph6.1 kmh 29.59 in1002.0 mb 0.00 in0.0 mm 0.00 in0.0 mm 0.00 in0.0 mm
03:23 AM 54.0°F12.2°C 38.6°F3.7°C 56% 2.2 mph W3.5 kmh W 3.8 mph6.1 kmh 29.59 in1002.0 mb 0.00 in0.0 mm 0.00 in0.0 mm 0.00 in0.0 mm
03:22 AM 53.8°F12.1°C 38.5°F3.6°C 56% 2.2 mph W3.5 kmh W 3.1 mph5.0 kmh 29.59 in1002.0 mb 0.00 in0.0 mm 0.00 in0.0 mm 0.00 in0.0 mm
03:21 AM 54.0°F12.2°C 38.6°F3.7°C 56% 1.6 mph W2.6 kmh W 2.2 mph3.5 kmh 29.59 in1002.0 mb 0.00 in0.0 mm 0.00 in0.0 mm 0.00 in0.0 mm
03:20 AM 53.8°F12.1°C 38.5°F3.6°C 56% 0.7 mph W1.1 kmh W 2.2 mph3.5 kmh 29.59 in1002.0 mb 0.00 in0.0 mm 0.00 in0.0 mm 0.00 in0.0 mm
03:19 AM 54.0°F12.2°C 38.6°F3.7°C 56% 0.7 mph W1.1 kmh W 2.2 mph3.5 kmh 29.59 in1002.0 mb 0.00 in0.0 mm 0.00 in0.0 mm 0.00 in0.0 mm
03:18 AM 54.0°F12.2°C 38.6°F3.7°C 56% 0.7 mph W1.1 kmh W 2.2 mph3.5 kmh 29.59 in1002.0 mb 0.00 in0.0 mm 0.00 in0.0 mm 0.00 in0.0 mm
03:17 AM 54.0°F12.2°C 38.6°F3.7°C 56% 0.7 mph W1.1 kmh W 2.2 mph3.5 kmh 29.59 in1002.0 mb 0.00 in0.0 mm 0.00 in0.0 mm 0.00 in0.0 mm
03:16 AM 54.0°F12.2°C 38.2°F3.4°C 55% Calm Calm 2.2 mph3.5 kmh 29.59 in1002.0 mb 0.00 in0.0 mm 0.00 in0.0 mm 0.00 in0.0 mm
03:15 AM 54.0°F12.2°C 38.2°F3.4°C 55% 0.7 mph W1.1 kmh W 2.2 mph3.5 kmh 29.59 in1002.0 mb 0.00 in0.0 mm 0.00 in0.0 mm 0.00 in0.0 mm
03:14 AM 54.0°F12.2°C 38.2°F3.4°C 55% 1.6 mph W2.6 kmh W 2.2 mph3.5 kmh 29.59 in1002.0 mb 0.00 in0.0 mm 0.00 in0.0 mm 0.00 in0.0 mm
03:13 AM 54.0°F12.2°C 38.2°F3.4°C 55% 1.6 mph W2.6 kmh W 2.2 mph3.5 kmh 29.59 in1002.0 mb 0.00 in0.0 mm 0.00 in0.0 mm 0.00 in0.0 mm
03:12 AM 54.0°F12.2°C 38.2°F3.4°C 55% 0.7 mph W1.1 kmh W 2.2 mph3.5 kmh 29.59 in1002.0 mb 0.00 in0.0 mm 0.00 in0.0 mm 0.00 in0.0 mm
03:11 AM 54.0°F12.2°C 38.2°F3.4°C 55% 0.7 mph W1.1 kmh W 2.2 mph3.5 kmh 29.59 in1002.0 mb 0.00 in0.0 mm 0.00 in0.0 mm 0.00 in0.0 mm
03:10 AM 54.1°F12.3°C 38.3°F3.5°C 55% 0.7 mph W1.1 kmh W 2.2 mph3.5 kmh 29.59 in1002.0 mb 0.00 in0.0 mm 0.00 in0.0 mm 0.00 in0.0 mm
03:09 AM 54.1°F12.3°C 38.3°F3.5°C 55% 0.7 mph WNW1.1 kmh WNW 2.2 mph3.5 kmh 29.59 in1002.0 mb 0.00 in0.0 mm 0.00 in0.0 mm 0.00 in0.0 mm
03:08 AM 54.1°F12.3°C 38.3°F3.5°C 55% Calm Calm 2.2 mph3.5 kmh 29.60 in1002.4 mb 0.00 in0.0 mm 0.00 in0.0 mm 0.00 in0.0 mm
03:07 AM 54.3°F12.4°C 38.5°F3.6°C 55% Calm Calm 2.2 mph3.5 kmh 29.60 in1002.4 mb 0.00 in0.0 mm 0.00 in0.0 mm 0.00 in0.0 mm
03:06 AM 54.3°F12.4°C 38.5°F3.6°C 55% 0.7 mph NW1.1 kmh NW 2.2 mph3.5 kmh 29.60 in1002.4 mb 0.00 in0.0 mm 0.00 in0.0 mm 0.00 in0.0 mm
03:05 AM 54.3°F12.4°C 38.5°F3.6°C 55% 0.7 mph NW1.1 kmh NW 2.2 mph3.5 kmh 29.60 in1002.4 mb 0.00 in0.0 mm 0.00 in0.0 mm 0.00 in0.0 mm
03:04 AM 54.3°F12.4°C 38.5°F3.6°C 55% 1.6 mph N2.6 kmh N 2.2 mph3.5 kmh 29.60 in1002.4 mb 0.00 in0.0 mm 0.00 in0.0 mm 0.00 in0.0 mm
03:03 AM 54.3°F12.4°C 38.5°F3.6°C 55% 1.6 mph N2.6 kmh N 2.2 mph3.5 kmh 29.60 in1002.4 mb 0.00 in0.0 mm 0.00 in0.0 mm 0.00 in0.0 mm
03:02 AM 54.5°F12.5°C 38.7°F3.7°C 55% 1.6 mph N2.6 kmh N 2.2 mph3.5 kmh 29.60 in1002.4 mb 0.00 in0.0 mm 0.00 in0.0 mm 0.00 in0.0 mm
03:01 AM 54.7°F12.6°C 38.8°F3.8°C 55% 0.7 mph N1.1 kmh N 2.2 mph3.5 kmh 29.60 in1002.4 mb 0.00 in0.0 mm 0.00 in0.0 mm 0.00 in0.0 mm
03:00 AM 54.5°F12.5°C 38.7°F3.7°C 55% 0.7 mph NNE1.1 kmh NNE 2.2 mph3.5 kmh 29.60 in1002.4 mb 0.00 in0.0 mm 0.00 in0.0 mm 0.00 in0.0 mm
02:59 AM 54.5°F12.5°C 38.2°F3.4°C 54% Calm Calm 2.2 mph3.5 kmh 29.60 in1002.4 mb 0.00 in0.0 mm 0.00 in0.0 mm 0.00 in0.0 mm
02:58 AM 54.7°F12.6°C 38.4°F3.6°C 54% Calm Calm 2.2 mph3.5 kmh 29.60 in1002.4 mb 0.00 in0.0 mm 0.00 in0.0 mm 0.00 in0.0 mm
02:57 AM 54.7°F12.6°C 38.4°F3.6°C 54% Calm Calm 2.2 mph3.5 kmh 29.60 in1002.4 mb 0.00 in0.0 mm 0.00 in0.0 mm 0.00 in0.0 mm
02:56 AM 54.7°F12.6°C 38.4°F3.6°C 54% 1.6 mph NNW2.6 kmh NNW 2.2 mph3.5 kmh 29.60 in1002.4 mb 0.00 in0.0 mm 0.00 in0.0 mm 0.00 in0.0 mm
02:55 AM 54.7°F12.6°C 38.4°F3.6°C 54% 0.7 mph NW1.1 kmh NW 2.2 mph3.5 kmh 29.60 in1002.4 mb 0.00 in0.0 mm 0.00 in0.0 mm 0.00 in0.0 mm
02:54 AM 54.9°F12.7°C 38.5°F3.6°C 54% Calm Calm 1.6 mph2.6 kmh 29.60 in1002.4 mb 0.00 in0.0 mm 0.00 in0.0 mm 0.00 in0.0 mm
02:53 AM 54.9°F12.7°C 38.5°F3.6°C 54% 0.7 mph NW1.1 kmh NW 1.6 mph2.6 kmh 29.60 in1002.4 mb 0.00 in0.0 mm 0.00 in0.0 mm 0.00 in0.0 mm
02:52 AM 54.9°F12.7°C 38.5°F3.6°C 54% Calm Calm 1.6 mph2.6 kmh 29.60 in1002.4 mb 0.00 in0.0 mm 0.00 in0.0 mm 0.00 in0.0 mm
02:51 AM 55.0°F12.8°C 38.2°F3.4°C 53% Calm Calm 2.2 mph3.5 kmh 29.60 in1002.4 mb 0.00 in0.0 mm 0.00 in0.0 mm 0.00 in0.0 mm
02:50 AM 55.0°F12.8°C 38.2°F3.4°C 53% Calm Calm 2.2 mph3.5 kmh 29.60 in1002.4 mb 0.00 in0.0 mm 0.00 in0.0 mm 0.00 in0.0 mm
02:49 AM 55.0°F12.8°C 38.2°F3.4°C 53% Calm Calm 2.2 mph3.5 kmh 29.60 in1002.4 mb 0.00 in0.0 mm 0.00 in0.0 mm 0.00 in0.0 mm
02:48 AM 55.2°F12.9°C 38.4°F3.6°C 53% 0.7 mph NW1.1 kmh NW 3.1 mph5.0 kmh 29.60 in1002.4 mb 0.00 in0.0 mm 0.00 in0.0 mm 0.00 in0.0 mm
02:47 AM 55.2°F12.9°C 38.4°F3.6°C 53% 0.7 mph NW1.1 kmh NW 3.1 mph5.0 kmh 29.60 in1002.4 mb 0.00 in0.0 mm 0.00 in0.0 mm 0.00 in0.0 mm
02:46 AM 55.2°F12.9°C 38.4°F3.6°C 53% 0.7 mph NW1.1 kmh NW 3.8 mph6.1 kmh 29.60 in1002.4 mb 0.00 in0.0 mm 0.00 in0.0 mm 0.00 in0.0 mm
02:45 AM 55.2°F12.9°C 38.4°F3.6°C 53% 0.7 mph NW1.1 kmh NW 3.8 mph6.1 kmh 29.60 in1002.4 mb 0.00 in0.0 mm 0.00 in0.0 mm 0.00 in0.0 mm
02:44 AM 55.2°F12.9°C 38.4°F3.6°C 53% 0.7 mph NW1.1 kmh NW 3.8 mph6.1 kmh 29.60 in1002.4 mb 0.00 in0.0 mm 0.00 in0.0 mm 0.00 in0.0 mm
02:43 AM 55.2°F12.9°C 38.4°F3.6°C 53% 0.7 mph NW1.1 kmh NW 3.8 mph6.1 kmh 29.60 in1002.4 mb 0.00 in0.0 mm 0.00 in0.0 mm 0.00 in0.0 mm
02:42 AM 55.0°F12.8°C 38.2°F3.4°C 53% 0.7 mph NW1.1 kmh NW 3.8 mph6.1 kmh 29.61 in1002.7 mb 0.00 in0.0 mm 0.00 in0.0 mm 0.00 in0.0 mm
02:41 AM 55.0°F12.8°C 38.2°F3.4°C 53% 1.6 mph NW2.6 kmh NW 3.8 mph6.1 kmh 29.61 in1002.7 mb 0.00 in0.0 mm 0.00 in0.0 mm 0.00 in0.0 mm
02:40 AM 54.9°F12.7°C 38.1°F3.4°C 53% 1.6 mph NW2.6 kmh NW 3.8 mph6.1 kmh 29.61 in1002.7 mb 0.00 in0.0 mm 0.00 in0.0 mm 0.00 in0.0 mm
02:39 AM 55.0°F12.8°C 38.2°F3.4°C 53% 1.6 mph NW2.6 kmh NW 3.8 mph6.1 kmh 29.61 in1002.7 mb 0.00 in0.0 mm 0.00 in0.0 mm 0.00 in0.0 mm
02:38 AM 54.9°F12.7°C 38.1°F3.4°C 53% 1.6 mph NW2.6 kmh NW 3.8 mph6.1 kmh 29.61 in1002.7 mb 0.00 in0.0 mm 0.00 in0.0 mm 0.00 in0.0 mm
02:37 AM 54.9°F12.7°C 38.1°F3.4°C 53% 2.2 mph NW3.5 kmh NW 3.8 mph6.1 kmh 29.61 in1002.7 mb 0.00 in0.0 mm 0.00 in0.0 mm 0.00 in0.0 mm
02:36 AM 54.9°F12.7°C 38.5°F3.6°C 54% 1.6 mph NW2.6 kmh NW 3.8 mph6.1 kmh 29.61 in1002.7 mb 0.00 in0.0 mm 0.00 in0.0 mm 0.00 in0.0 mm
02:35 AM 54.9°F12.7°C 38.5°F3.6°C 54% 2.2 mph NW3.5 kmh NW 3.8 mph6.1 kmh 29.61 in1002.7 mb 0.00 in0.0 mm 0.00 in0.0 mm 0.00 in0.0 mm
02:34 AM 54.5°F12.5°C 38.2°F3.4°C 54% 2.2 mph NW3.5 kmh NW 3.1 mph5.0 kmh 29.61 in1002.7 mb 0.00 in0.0 mm 0.00 in0.0 mm 0.00 in0.0 mm
02:33 AM 54.5°F12.5°C 38.2°F3.4°C 54% 1.6 mph NW2.6 kmh NW 3.1 mph5.0 kmh 29.61 in1002.7 mb 0.00 in0.0 mm 0.00 in0.0 mm 0.00 in0.0 mm
02:32 AM 54.5°F12.5°C 38.2°F3.4°C 54% 1.6 mph NW2.6 kmh NW 2.2 mph3.5 kmh 29.61 in1002.7 mb 0.00 in0.0 mm 0.00 in0.0 mm 0.00 in0.0 mm
02:31 AM 54.5°F12.5°C 38.7°F3.7°C 55% 0.7 mph NW1.1 kmh NW 2.2 mph3.5 kmh 29.61 in1002.7 mb 0.00 in0.0 mm 0.00 in0.0 mm 0.00 in0.0 mm
02:30 AM 54.7°F12.6°C 38.8°F3.8°C 55% Calm Calm 2.2 mph3.5 kmh 29.62 in1003.0 mb 0.00 in0.0 mm 0.00 in0.0 mm 0.00 in0.0 mm
02:29 AM 54.7°F12.6°C 38.8°F3.8°C 55% Calm Calm 2.2 mph3.5 kmh 29.62 in1003.0 mb 0.00 in0.0 mm 0.00 in0.0 mm 0.00 in0.0 mm
02:28 AM 54.7°F12.6°C 38.4°F3.6°C 54% Calm Calm 3.1 mph5.0 kmh 29.62 in1003.0 mb 0.00 in0.0 mm 0.00 in0.0 mm 0.00 in0.0 mm
02:27 AM 54.9°F12.7°C 38.5°F3.6°C 54% 0.7 mph NW1.1 kmh NW 3.1 mph5.0 kmh 29.62 in1003.0 mb 0.00 in0.0 mm 0.00 in0.0 mm 0.00 in0.0 mm
02:26 AM 54.9°F12.7°C 38.5°F3.6°C 54% 0.7 mph NW1.1 kmh NW 3.1 mph5.0 kmh 29.62 in1003.0 mb 0.00 in0.0 mm 0.00 in0.0 mm 0.00 in0.0 mm
02:25 AM 54.9°F12.7°C 38.5°F3.6°C 54% 0.7 mph NW1.1 kmh NW 3.1 mph5.0 kmh 29.62 in1003.0 mb 0.00 in0.0 mm 0.00 in0.0 mm 0.00 in0.0 mm
02:24 AM 54.9°F12.7°C 38.5°F3.6°C 54% 0.7 mph NW1.1 kmh NW 3.1 mph5.0 kmh 29.62 in1003.0 mb 0.00 in0.0 mm 0.00 in0.0 mm 0.00 in0.0 mm
02:23 AM 55.0°F12.8°C 38.7°F3.7°C 54% 0.7 mph NW1.1 kmh NW 3.1 mph5.0 kmh 29.62 in1003.0 mb 0.00 in0.0 mm 0.00 in0.0 mm 0.00 in0.0 mm
02:22 AM 54.9°F12.7°C 38.5°F3.6°C 54% 0.7 mph NW1.1 kmh NW 3.1 mph5.0 kmh 29.62 in1003.0 mb 0.00 in0.0 mm 0.00 in0.0 mm 0.00 in0.0 mm
02:21 AM 54.9°F12.7°C 38.5°F3.6°C 54% 1.6 mph NW2.6 kmh NW 3.1 mph5.0 kmh 29.62 in1003.0 mb 0.00 in0.0 mm 0.00 in0.0 mm 0.00 in0.0 mm
02:20 AM 54.9°F12.7°C 38.5°F3.6°C 54% 0.7 mph NW1.1 kmh NW 3.1 mph5.0 kmh 29.62 in1003.0 mb 0.00 in0.0 mm 0.00 in0.0 mm 0.00 in0.0 mm
02:19 AM 54.7°F12.6°C 38.8°F3.8°C 55% 1.6 mph NW2.6 kmh NW 3.1 mph5.0 kmh 29.62 in1003.0 mb 0.00 in0.0 mm 0.00 in0.0 mm 0.00 in0.0 mm
02:18 AM 54.7°F12.6°C 38.8°F3.8°C 55% 1.6 mph NW2.6 kmh NW 3.1 mph5.0 kmh 29.62 in1003.0 mb 0.00 in0.0 mm 0.00 in0.0 mm 0.00 in0.0 mm
02:17 AM 54.5°F12.5°C 38.7°F3.7°C 55% 0.7 mph NW1.1 kmh NW 3.1 mph5.0 kmh 29.62 in1003.0 mb 0.00 in0.0 mm 0.00 in0.0 mm 0.00 in0.0 mm
02:16 AM 54.5°F12.5°C 38.7°F3.7°C 55% 0.7 mph NW1.1 kmh NW 3.1 mph5.0 kmh 29.62 in1003.0 mb 0.00 in0.0 mm 0.00 in0.0 mm 0.00 in0.0 mm
02:15 AM 54.5°F12.5°C 38.7°F3.7°C 55% 1.6 mph NW2.6 kmh NW 3.1 mph5.0 kmh 29.62 in1003.0 mb 0.00 in0.0 mm 0.00 in0.0 mm 0.00 in0.0 mm
02:14 AM 54.3°F12.4°C 39.0°F3.9°C 56% 1.6 mph NW2.6 kmh NW 3.1 mph5.0 kmh 29.62 in1003.0 mb 0.00 in0.0 mm 0.00 in0.0 mm 0.00 in0.0 mm
02:13 AM 54.1°F12.3°C 39.3°F4.1°C 57% 0.7 mph NW1.1 kmh NW 3.1 mph5.0 kmh 29.62 in1003.0 mb 0.00 in0.0 mm 0.00 in0.0 mm 0.00 in0.0 mm
02:12 AM 54.1°F12.3°C 39.3°F4.1°C 57% 0.7 mph NW1.1 kmh NW 3.1 mph5.0 kmh 29.63 in1003.4 mb 0.00 in0.0 mm 0.00 in0.0 mm 0.00 in0.0 mm
02:11 AM 54.1°F12.3°C 39.3°F4.1°C 57% 1.6 mph NW2.6 kmh NW 3.1 mph5.0 kmh 29.63 in1003.4 mb 0.00 in0.0 mm 0.00 in0.0 mm 0.00 in0.0 mm
02:10 AM 54.1°F12.3°C 39.7°F4.3°C 58% 1.6 mph NW2.6 kmh NW 3.1 mph5.0 kmh 29.63 in1003.4 mb 0.00 in0.0 mm 0.00 in0.0 mm 0.00 in0.0 mm
02:09 AM 54.1°F12.3°C 39.7°F4.3°C 58% 0.7 mph NW1.1 kmh NW 2.2 mph3.5 kmh 29.63 in1003.4 mb 0.00 in0.0 mm 0.00 in0.0 mm 0.00 in0.0 mm
02:08 AM 54.1°F12.3°C 39.7°F4.3°C 58% 0.7 mph NW1.1 kmh NW 2.2 mph3.5 kmh 29.63 in1003.4 mb 0.00 in0.0 mm 0.00 in0.0 mm 0.00 in0.0 mm
02:07 AM 54.3°F12.4°C 39.9°F4.4°C 58% 0.7 mph NW1.1 kmh NW 2.2 mph3.5 kmh 29.63 in1003.4 mb 0.00 in0.0 mm 0.00 in0.0 mm 0.00 in0.0 mm
02:06 AM 54.3°F12.4°C 39.4°F4.1°C 57% 0.7 mph NW1.1 kmh NW 2.2 mph3.5 kmh 29.63 in1003.4 mb 0.00 in0.0 mm 0.00 in0.0 mm 0.00 in0.0 mm
02:05 AM 54.3°F12.4°C 39.4°F4.1°C 57% Calm Calm 0.7 mph1.1 kmh 29.63 in1003.4 mb 0.00 in0.0 mm 0.00 in0.0 mm 0.00 in0.0 mm
02:04 AM 54.5°F12.5°C 39.6°F4.2°C 57% Calm Calm 1.6 mph2.6 kmh 29.63 in1003.4 mb 0.00 in0.0 mm 0.00 in0.0 mm 0.00 in0.0 mm
02:03 AM 54.5°F12.5°C 39.6°F4.2°C 57% Calm Calm 1.6 mph2.6 kmh 29.63 in1003.4 mb 0.00 in0.0 mm 0.00 in0.0 mm 0.00 in0.0 mm
02:02 AM 54.5°F12.5°C 39.6°F4.2°C 57% Calm Calm 2.2 mph3.5 kmh 29.63 in1003.4 mb 0.00 in0.0 mm 0.00 in0.0 mm 0.00 in0.0 mm
02:01 AM 54.5°F12.5°C 39.6°F4.2°C 57% Calm Calm 2.2 mph3.5 kmh 29.63 in1003.4 mb 0.00 in0.0 mm 0.00 in0.0 mm 0.00 in0.0 mm
02:00 AM 54.7°F12.6°C 39.8°F4.3°C 57% Calm Calm 2.2 mph3.5 kmh 29.63 in1003.4 mb 0.00 in0.0 mm 0.00 in0.0 mm 0.00 in0.0 mm
01:59 AM 54.9°F12.7°C 39.9°F4.4°C 57% Calm Calm 2.2 mph3.5 kmh 29.63 in1003.4 mb 0.00 in0.0 mm 0.00 in0.0 mm 0.00 in0.0 mm
01:58 AM 54.7°F12.6°C 39.8°F4.3°C 57% Calm Calm 2.2 mph3.5 kmh 29.63 in1003.4 mb 0.00 in0.0 mm 0.00 in0.0 mm 0.00 in0.0 mm
01:57 AM 54.7°F12.6°C 39.8°F4.3°C 57% Calm Calm 2.2 mph3.5 kmh 29.63 in1003.4 mb 0.00 in0.0 mm 0.00 in0.0 mm 0.00 in0.0 mm
01:56 AM 54.9°F12.7°C 39.9°F4.4°C 57% Calm Calm 2.2 mph3.5 kmh 29.63 in1003.4 mb 0.00 in0.0 mm 0.00 in0.0 mm 0.00 in0.0 mm
01:55 AM 54.7°F12.6°C 39.8°F4.3°C 57% Calm Calm 2.2 mph3.5 kmh 29.63 in1003.4 mb 0.00 in0.0 mm 0.00 in0.0 mm 0.00 in0.0 mm
01:54 AM 54.9°F12.7°C 39.9°F4.4°C 57% 0.7 mph N1.1 kmh N 2.2 mph3.5 kmh 29.63 in1003.4 mb 0.00 in0.0 mm 0.00 in0.0 mm 0.00 in0.0 mm
01:53 AM 55.0°F12.8°C 39.6°F4.2°C 56% 0.7 mph N1.1 kmh N 2.2 mph3.5 kmh 29.63 in1003.4 mb 0.00 in0.0 mm 0.00 in0.0 mm 0.00 in0.0 mm
01:52 AM 54.9°F12.7°C 39.5°F4.2°C 56% 1.6 mph NNW2.6 kmh NNW 2.2 mph3.5 kmh 29.63 in1003.4 mb 0.00 in0.0 mm 0.00 in0.0 mm 0.00 in0.0 mm
01:51 AM 55.0°F12.8°C 39.6°F4.2°C 56% 0.7 mph NNW1.1 kmh NNW 2.2 mph3.5 kmh 29.63 in1003.4 mb 0.00 in0.0 mm 0.00 in0.0 mm 0.00 in0.0 mm
01:50 AM 55.0°F12.8°C 39.6°F4.2°C 56% 0.7 mph NW1.1 kmh NW 2.2 mph3.5 kmh 29.63 in1003.4 mb 0.00 in0.0 mm 0.00 in0.0 mm 0.00 in0.0 mm
01:49 AM 55.0°F12.8°C 39.6°F4.2°C 56% 0.7 mph NW1.1 kmh NW 2.2 mph3.5 kmh 29.63 in1003.4 mb 0.00 in0.0 mm 0.00 in0.0 mm 0.00 in0.0 mm
01:48 AM 55.0°F12.8°C 39.6°F4.2°C 56% 0.7 mph WNW1.1 kmh WNW 2.2 mph3.5 kmh 29.63 in1003.4 mb 0.00 in0.0 mm 0.00 in0.0 mm 0.00 in0.0 mm
01:47 AM 55.2°F12.9°C 39.3°F4.1°C 55% 0.7 mph W1.1 kmh W 2.2 mph3.5 kmh 29.63 in1003.4 mb 0.00 in0.0 mm 0.00 in0.0 mm 0.00 in0.0 mm
01:46 AM 55.2°F12.9°C 39.3°F4.1°C 55% 0.7 mph WSW1.1 kmh WSW 2.2 mph3.5 kmh 29.63 in1003.4 mb 0.00 in0.0 mm 0.00 in0.0 mm 0.00 in0.0 mm
01:45 AM 55.2°F12.9°C 39.3°F4.1°C 55% 0.7 mph WSW1.1 kmh WSW 2.2 mph3.5 kmh 29.64 in1003.7 mb 0.00 in0.0 mm 0.00 in0.0 mm 0.00 in0.0 mm
01:44 AM 55.2°F12.9°C 39.3°F4.1°C 55% 0.7 mph WSW1.1 kmh WSW 3.1 mph5.0 kmh 29.64 in1003.7 mb 0.00 in0.0 mm 0.00 in0.0 mm 0.00 in0.0 mm
01:43 AM 55.2°F12.9°C 39.3°F4.1°C 55% 0.7 mph WSW1.1 kmh WSW 3.1 mph5.0 kmh 29.63 in1003.4 mb 0.00 in0.0 mm 0.00 in0.0 mm 0.00 in0.0 mm
01:42 AM 55.4°F13.0°C 39.5°F4.2°C 55% 0.7 mph WSW1.1 kmh WSW 3.1 mph5.0 kmh 29.63 in1003.4 mb 0.00 in0.0 mm 0.00 in0.0 mm 0.00 in0.0 mm
01:41 AM 55.4°F13.0°C 39.5°F4.2°C 55% 0.7 mph WSW1.1 kmh WSW 3.1 mph5.0 kmh 29.63 in1003.4 mb 0.00 in0.0 mm 0.00 in0.0 mm 0.00 in0.0 mm
01:40 AM 55.4°F13.0°C 39.5°F4.2°C 55% 0.7 mph WSW1.1 kmh WSW 3.1 mph5.0 kmh 29.63 in1003.4 mb 0.00 in0.0 mm 0.00 in0.0 mm 0.00 in0.0 mm
01:39 AM 55.6°F13.1°C 39.2°F4.0°C 54% 0.7 mph W1.1 kmh W 3.1 mph5.0 kmh 29.63 in1003.4 mb 0.00 in0.0 mm 0.00 in0.0 mm 0.00 in0.0 mm
01:38 AM 55.4°F13.0°C 39.0°F3.9°C 54% Calm Calm 3.1 mph5.0 kmh 29.63 in1003.4 mb 0.00 in0.0 mm 0.00 in0.0 mm 0.00 in0.0 mm
01:37 AM 55.6°F13.1°C 39.2°F4.0°C 54% Calm Calm 3.1 mph5.0 kmh 29.63 in1003.4 mb 0.00 in0.0 mm 0.00 in0.0 mm 0.00 in0.0 mm
01:36 AM 55.6°F13.1°C 39.2°F4.0°C 54% 0.7 mph W1.1 kmh W 3.1 mph5.0 kmh 29.63 in1003.4 mb 0.00 in0.0 mm 0.00 in0.0 mm 0.00 in0.0 mm
01:35 AM 55.6°F13.1°C 39.2°F4.0°C 54% 1.6 mph W2.6 kmh W 3.1 mph5.0 kmh 29.63 in1003.4 mb 0.00 in0.0 mm 0.00 in0.0 mm 0.00 in0.0 mm
01:34 AM 55.8°F13.2°C 39.8°F4.3°C 55% 1.6 mph W2.6 kmh W 3.1 mph5.0 kmh 29.63 in1003.4 mb 0.00 in0.0 mm 0.00 in0.0 mm 0.00 in0.0 mm
01:33 AM 55.9°F13.3°C 40.0°F4.4°C 55% 1.6 mph W2.6 kmh W 3.1 mph5.0 kmh 29.63 in1003.4 mb 0.00 in0.0 mm 0.00 in0.0 mm 0.00 in0.0 mm
01:32 AM 55.9°F13.3°C 40.0°F4.4°C 55% 1.6 mph WSW2.6 kmh WSW 3.1 mph5.0 kmh 29.63 in1003.4 mb 0.00 in0.0 mm 0.00 in0.0 mm 0.00 in0.0 mm
01:31 AM 56.1°F13.4°C 40.2°F4.6°C 55% 0.7 mph W1.1 kmh W 3.1 mph5.0 kmh 29.63 in1003.4 mb 0.00 in0.0 mm 0.00 in0.0 mm 0.00 in0.0 mm
01:30 AM 55.9°F13.3°C 39.5°F4.2°C 54% 0.7 mph W1.1 kmh W 3.1 mph5.0 kmh 29.64 in1003.7 mb 0.00 in0.0 mm 0.00 in0.0 mm 0.00 in0.0 mm
01:29 AM 56.1°F13.4°C 39.7°F4.3°C 54% 0.7 mph W1.1 kmh W 3.1 mph5.0 kmh 29.64 in1003.7 mb 0.00 in0.0 mm 0.00 in0.0 mm 0.00 in0.0 mm
01:28 AM 56.1°F13.4°C 39.7°F4.3°C 54% 1.6 mph W2.6 kmh W 3.1 mph5.0 kmh 29.63 in1003.4 mb 0.00 in0.0 mm 0.00 in0.0 mm 0.00 in0.0 mm
01:27 AM 56.1°F13.4°C 39.7°F4.3°C 54% 1.6 mph W2.6 kmh W 3.1 mph5.0 kmh 29.63 in1003.4 mb 0.00 in0.0 mm 0.00 in0.0 mm 0.00 in0.0 mm
01:26 AM 56.1°F13.4°C 40.2°F4.6°C 55% 0.7 mph W1.1 kmh W 3.1 mph5.0 kmh 29.63 in1003.4 mb 0.00 in0.0 mm 0.00 in0.0 mm 0.00 in0.0 mm
01:25 AM 56.1°F13.4°C 40.2°F4.6°C 55% 0.7 mph W1.1 kmh W 3.1 mph5.0 kmh 29.63 in1003.4 mb 0.00 in0.0 mm 0.00 in0.0 mm 0.00 in0.0 mm
01:24 AM 56.1°F13.4°C 40.2°F4.6°C 55% 0.7 mph W1.1 kmh W 3.1 mph5.0 kmh 29.63 in1003.4 mb 0.00 in0.0 mm 0.00 in0.0 mm 0.00 in0.0 mm
01:23 AM 56.1°F13.4°C 40.2°F4.6°C 55% 1.6 mph W2.6 kmh W 3.1 mph5.0 kmh 29.63 in1003.4 mb 0.00 in0.0 mm 0.00 in0.0 mm 0.00 in0.0 mm
01:22 AM 56.1°F13.4°C 40.2°F4.6°C 55% 2.2 mph W3.5 kmh W 3.1 mph5.0 kmh 29.63 in1003.4 mb 0.00 in0.0 mm 0.00 in0.0 mm 0.00 in0.0 mm
01:21 AM 56.1°F13.4°C 40.2°F4.6°C 55% 1.6 mph W2.6 kmh W 3.1 mph5.0 kmh 29.63 in1003.4 mb 0.00 in0.0 mm 0.00 in0.0 mm 0.00 in0.0 mm
01:20 AM 55.9°F13.3°C 40.0°F4.4°C 55% 0.7 mph W1.1 kmh W 3.1 mph5.0 kmh 29.63 in1003.4 mb 0.00 in0.0 mm 0.00 in0.0 mm 0.00 in0.0 mm
01:19 AM 55.9°F13.3°C 40.0°F4.4°C 55% 1.6 mph W2.6 kmh W 3.1 mph5.0 kmh 29.64 in1003.7 mb 0.00 in0.0 mm 0.00 in0.0 mm 0.00 in0.0 mm
01:18 AM 55.9°F13.3°C 40.0°F4.4°C 55% 1.6 mph W2.6 kmh W 3.1 mph5.0 kmh 29.63 in1003.4 mb 0.00 in0.0 mm 0.00 in0.0 mm 0.00 in0.0 mm
01:17 AM 55.9°F13.3°C 40.0°F4.4°C 55% 0.7 mph W1.1 kmh W 3.1 mph5.0 kmh 29.63 in1003.4 mb 0.00 in0.0 mm 0.00 in0.0 mm 0.00 in0.0 mm
01:16 AM 55.8°F13.2°C 40.3°F4.6°C 56% 1.6 mph W2.6 kmh W 3.1 mph5.0 kmh 29.63 in1003.4 mb 0.00 in0.0 mm 0.00 in0.0 mm 0.00 in0.0 mm
01:15 AM 55.8°F13.2°C 40.3°F4.6°C 56% 1.6 mph W2.6 kmh W 3.1 mph5.0 kmh 29.63 in1003.4 mb 0.00 in0.0 mm 0.00 in0.0 mm 0.00 in0.0 mm
01:14 AM 55.8°F13.2°C 40.3°F4.6°C 56% 1.6 mph W2.6 kmh W 3.1 mph5.0 kmh 29.63 in1003.4 mb 0.00 in0.0 mm 0.00 in0.0 mm 0.00 in0.0 mm
01:13 AM 55.8°F13.2°C 40.3°F4.6°C 56% 1.6 mph W2.6 kmh W 3.1 mph5.0 kmh 29.63 in1003.4 mb 0.00 in0.0 mm 0.00 in0.0 mm 0.00 in0.0 mm
01:12 AM 55.8°F13.2°C 40.3°F4.6°C 56% 0.7 mph W1.1 kmh W 3.1 mph5.0 kmh 29.63 in1003.4 mb 0.00 in0.0 mm 0.00 in0.0 mm 0.00 in0.0 mm
01:11 AM 55.6°F13.1°C 40.1°F4.5°C 56% 0.7 mph W1.1 kmh W 3.1 mph5.0 kmh 29.63 in1003.4 mb 0.00 in0.0 mm 0.00 in0.0 mm 0.00 in0.0 mm
01:10 AM 55.6°F13.1°C 40.1°F4.5°C 56% 1.6 mph W2.6 kmh W 3.1 mph5.0 kmh 29.63 in1003.4 mb 0.00 in0.0 mm 0.00 in0.0 mm 0.00 in0.0 mm
01:09 AM 55.6°F13.1°C 40.1°F4.5°C 56% 1.6 mph W2.6 kmh W 3.1 mph5.0 kmh 29.63 in1003.4 mb 0.00 in0.0 mm 0.00 in0.0 mm 0.00 in0.0 mm
01:08 AM 55.6°F13.1°C 40.1°F4.5°C 56% 1.6 mph W2.6 kmh W 3.1 mph5.0 kmh 29.63 in1003.4 mb 0.00 in0.0 mm 0.00 in0.0 mm 0.00 in0.0 mm
01:07 AM 55.6°F13.1°C 40.1°F4.5°C 56% 1.6 mph W2.6 kmh W 3.1 mph5.0 kmh 29.63 in1003.4 mb 0.00 in0.0 mm 0.00 in0.0 mm 0.00 in0.0 mm
01:06 AM 55.8°F13.2°C 39.8°F4.3°C 55% 1.6 mph W2.6 kmh W 3.1 mph5.0 kmh 29.63 in1003.4 mb 0.00 in0.0 mm 0.00 in0.0 mm 0.00 in0.0 mm
01:05 AM 55.8°F13.2°C 40.3°F4.6°C 56% 1.6 mph W2.6 kmh W 3.1 mph5.0 kmh 29.63 in1003.4 mb 0.00 in0.0 mm 0.00 in0.0 mm 0.00 in0.0 mm
01:04 AM 55.9°F13.3°C 40.0°F4.4°C 55% 0.7 mph W1.1 kmh W 2.2 mph3.5 kmh 29.63 in1003.4 mb 0.00 in0.0 mm 0.00 in0.0 mm 0.00 in0.0 mm
01:03 AM 56.1°F13.4°C 40.2°F4.6°C 55% 0.7 mph WSW1.1 kmh WSW 2.2 mph3.5 kmh 29.63 in1003.4 mb 0.00 in0.0 mm 0.00 in0.0 mm 0.00 in0.0 mm
01:02 AM 56.1°F13.4°C 40.2°F4.6°C 55% 0.7 mph W1.1 kmh W 2.2 mph3.5 kmh 29.63 in1003.4 mb 0.00 in0.0 mm 0.00 in0.0 mm 0.00 in0.0 mm
01:01 AM 56.1°F13.4°C 40.6°F4.8°C 56% 0.7 mph W1.1 kmh W 2.2 mph3.5 kmh 29.63 in1003.4 mb 0.00 in0.0 mm 0.00 in0.0 mm 0.00 in0.0 mm
01:00 AM 56.3°F13.5°C 40.8°F4.9°C 56% 0.7 mph W1.1 kmh W 2.2 mph3.5 kmh 29.63 in1003.4 mb 0.00 in0.0 mm 0.00 in0.0 mm 0.00 in0.0 mm
12:59 AM 56.3°F13.5°C 40.8°F4.9°C 56% 0.7 mph W1.1 kmh W 2.2 mph3.5 kmh 29.63 in1003.4 mb 0.00 in0.0 mm 0.00 in0.0 mm 0.00 in0.0 mm
12:58 AM 56.3°F13.5°C 40.4°F4.7°C 55% 0.7 mph W1.1 kmh W 2.2 mph3.5 kmh 29.62 in1003.0 mb 0.00 in0.0 mm 0.00 in0.0 mm 0.00 in0.0 mm
12:57 AM 56.3°F13.5°C 40.4°F4.7°C 55% 0.7 mph W1.1 kmh W 2.2 mph3.5 kmh 29.62 in1003.0 mb 0.00 in0.0 mm 0.00 in0.0 mm 0.00 in0.0 mm
12:56 AM 56.3°F13.5°C 40.4°F4.7°C 55% 1.6 mph W2.6 kmh W 2.2 mph3.5 kmh 29.63 in1003.4 mb 0.00 in0.0 mm 0.00 in0.0 mm 0.00 in0.0 mm
12:55 AM 56.5°F13.6°C 40.5°F4.7°C 55% 0.7 mph W1.1 kmh W 2.2 mph3.5 kmh 29.62 in1003.0 mb 0.00 in0.0 mm 0.00 in0.0 mm 0.00 in0.0 mm
12:54 AM 56.3°F13.5°C 40.4°F4.7°C 55% Calm Calm 2.2 mph3.5 kmh 29.63 in1003.4 mb 0.00 in0.0 mm 0.00 in0.0 mm 0.00 in0.0 mm
12:53 AM 56.5°F13.6°C 40.5°F4.7°C 55% 0.7 mph WNW1.1 kmh WNW 2.2 mph3.5 kmh 29.63 in1003.4 mb 0.00 in0.0 mm 0.00 in0.0 mm 0.00 in0.0 mm
12:52 AM 56.3°F13.5°C 40.4°F4.7°C 55% 0.7 mph WNW1.1 kmh WNW 2.2 mph3.5 kmh 29.63 in1003.4 mb 0.00 in0.0 mm 0.00 in0.0 mm 0.00 in0.0 mm
12:51 AM 56.5°F13.6°C 40.0°F4.4°C 54% 0.7 mph WNW1.1 kmh WNW 2.2 mph3.5 kmh 29.63 in1003.4 mb 0.00 in0.0 mm 0.00 in0.0 mm 0.00 in0.0 mm
12:50 AM 56.5°F13.6°C 40.0°F4.4°C 54% 0.7 mph WNW1.1 kmh WNW 2.2 mph3.5 kmh 29.63 in1003.4 mb 0.00 in0.0 mm 0.00 in0.0 mm 0.00 in0.0 mm
12:49 AM 56.5°F13.6°C 40.0°F4.4°C 54% Calm Calm 2.2 mph3.5 kmh 29.63 in1003.4 mb 0.00 in0.0 mm 0.00 in0.0 mm 0.00 in0.0 mm
12:48 AM 56.7°F13.7°C 40.2°F4.6°C 54% Calm Calm 2.2 mph3.5 kmh 29.63 in1003.4 mb 0.00 in0.0 mm 0.00 in0.0 mm 0.00 in0.0 mm
12:47 AM 56.7°F13.7°C 40.2°F4.6°C 54% Calm Calm 3.1 mph5.0 kmh 29.63 in1003.4 mb 0.00 in0.0 mm 0.00 in0.0 mm 0.00 in0.0 mm
12:46 AM 56.8°F13.8°C 40.4°F4.7°C 54% Calm Calm 3.1 mph5.0 kmh 29.63 in1003.4 mb 0.00 in0.0 mm 0.00 in0.0 mm 0.00 in0.0 mm
12:45 AM 57.0°F13.9°C 40.1°F4.5°C 53% Calm Calm 3.1 mph5.0 kmh 29.62 in1003.0 mb 0.00 in0.0 mm 0.00 in0.0 mm 0.00 in0.0 mm
12:44 AM 57.0°F13.9°C 40.1°F4.5°C 53% Calm Calm 3.1 mph5.0 kmh 29.63 in1003.4 mb 0.00 in0.0 mm 0.00 in0.0 mm 0.00 in0.0 mm
12:43 AM 57.0°F13.9°C 40.1°F4.5°C 53% 0.7 mph W1.1 kmh W 3.1 mph5.0 kmh 29.63 in1003.4 mb 0.00 in0.0 mm 0.00 in0.0 mm 0.00 in0.0 mm
12:42 AM 57.2°F14.0°C 40.2°F4.6°C 53% 0.7 mph W1.1 kmh W 3.1 mph5.0 kmh 29.63 in1003.4 mb 0.00 in0.0 mm 0.00 in0.0 mm 0.00 in0.0 mm
12:41 AM 57.2°F14.0°C 40.2°F4.6°C 53% 0.7 mph W1.1 kmh W 3.1 mph5.0 kmh 29.63 in1003.4 mb 0.00 in0.0 mm 0.00 in0.0 mm 0.00 in0.0 mm
12:40 AM 57.2°F14.0°C 40.2°F4.6°C 53% 0.7 mph W1.1 kmh W 3.1 mph5.0 kmh 29.63 in1003.4 mb 0.00 in0.0 mm 0.00 in0.0 mm 0.00 in0.0 mm
12:39 AM 57.2°F14.0°C 40.2°F4.6°C 53% 0.7 mph W1.1 kmh W 3.1 mph5.0 kmh 29.63 in1003.4 mb 0.00 in0.0 mm 0.00 in0.0 mm 0.00 in0.0 mm
12:38 AM 57.2°F14.0°C 40.2°F4.6°C 53% 1.6 mph WNW2.6 kmh WNW 3.1 mph5.0 kmh 29.63 in1003.4 mb 0.00 in0.0 mm 0.00 in0.0 mm 0.00 in0.0 mm
12:37 AM 57.4°F14.1°C 40.4°F4.7°C 53% 0.7 mph WNW1.1 kmh WNW 3.1 mph5.0 kmh 29.63 in1003.4 mb 0.00 in0.0 mm 0.00 in0.0 mm 0.00 in0.0 mm
12:36 AM 57.4°F14.1°C 39.9°F4.4°C 52% 1.6 mph WNW2.6 kmh WNW 3.1 mph5.0 kmh 29.63 in1003.4 mb 0.00 in0.0 mm 0.00 in0.0 mm 0.00 in0.0 mm
12:35 AM 57.4°F14.1°C 39.9°F4.4°C 52% 0.7 mph WNW1.1 kmh WNW 3.1 mph5.0 kmh 29.63 in1003.4 mb 0.00 in0.0 mm 0.00 in0.0 mm 0.00 in0.0 mm
12:34 AM 57.2°F14.0°C 39.7°F4.3°C 52% 0.7 mph WNW1.1 kmh WNW 3.1 mph5.0 kmh 29.63 in1003.4 mb 0.00 in0.0 mm 0.00 in0.0 mm 0.00 in0.0 mm
12:33 AM 57.4°F14.1°C 39.9°F4.4°C 52% 0.7 mph WNW1.1 kmh WNW 3.1 mph5.0 kmh 29.62 in1003.0 mb 0.00 in0.0 mm 0.00 in0.0 mm 0.00 in0.0 mm
12:32 AM 57.4°F14.1°C 39.9°F4.4°C 52% 0.7 mph NW1.1 kmh NW 3.1 mph5.0 kmh 29.63 in1003.4 mb 0.00 in0.0 mm 0.00 in0.0 mm 0.00 in0.0 mm
12:31 AM 57.4°F14.1°C 39.9°F4.4°C 52% 1.6 mph WNW2.6 kmh WNW 3.8 mph6.1 kmh 29.63 in1003.4 mb 0.00 in0.0 mm 0.00 in0.0 mm 0.00 in0.0 mm
12:30 AM 57.2°F14.0°C 39.7°F4.3°C 52% 1.6 mph WNW2.6 kmh WNW 4.5 mph7.2 kmh 29.63 in1003.4 mb 0.00 in0.0 mm 0.00 in0.0 mm 0.00 in0.0 mm
12:29 AM 57.2°F14.0°C 39.7°F4.3°C 52% 1.6 mph WNW2.6 kmh WNW 4.5 mph7.2 kmh 29.63 in1003.4 mb 0.00 in0.0 mm 0.00 in0.0 mm 0.00 in0.0 mm
12:28 AM 57.4°F14.1°C 39.4°F4.1°C 51% 0.7 mph WNW1.1 kmh WNW 6.0 mph9.7 kmh 29.63 in1003.4 mb 0.00 in0.0 mm 0.00 in0.0 mm 0.00 in0.0 mm
12:27 AM 57.4°F14.1°C 39.4°F4.1°C 51% 0.7 mph WNW1.1 kmh WNW 6.0 mph9.7 kmh 29.63 in1003.4 mb 0.00 in0.0 mm 0.00 in0.0 mm 0.00 in0.0 mm
12:26 AM 57.4°F14.1°C 39.4°F4.1°C 51% 0.7 mph WNW1.1 kmh WNW 6.0 mph9.7 kmh 29.63 in1003.4 mb 0.00 in0.0 mm 0.00 in0.0 mm 0.00 in0.0 mm
12:25 AM 57.6°F14.2°C 39.6°F4.2°C 51% 1.6 mph NW2.6 kmh NW 6.0 mph9.7 kmh 29.63 in1003.4 mb 0.00 in0.0 mm 0.00 in0.0 mm 0.00 in0.0 mm
12:24 AM 57.6°F14.2°C 39.6°F4.2°C 51% 0.7 mph NW1.1 kmh NW 6.0 mph9.7 kmh 29.63 in1003.4 mb 0.00 in0.0 mm 0.00 in0.0 mm 0.00 in0.0 mm
12:23 AM 57.6°F14.2°C 39.6°F4.2°C 51% 0.7 mph WNW1.1 kmh WNW 6.0 mph9.7 kmh 29.63 in1003.4 mb 0.00 in0.0 mm 0.00 in0.0 mm 0.00 in0.0 mm
12:22 AM 57.6°F14.2°C 39.6°F4.2°C 51% 1.6 mph WNW2.6 kmh WNW 6.0 mph9.7 kmh 29.63 in1003.4 mb 0.00 in0.0 mm 0.00 in0.0 mm 0.00 in0.0 mm
12:21 AM 57.6°F14.2°C 40.1°F4.5°C 52% 1.6 mph WNW2.6 kmh WNW 6.0 mph9.7 kmh 29.63 in1003.4 mb 0.00 in0.0 mm 0.00 in0.0 mm 0.00 in0.0 mm
12:20 AM 57.6°F14.2°C 40.1°F4.5°C 52% 2.2 mph WNW3.5 kmh WNW 6.0 mph9.7 kmh 29.63 in1003.4 mb 0.00 in0.0 mm 0.00 in0.0 mm 0.00 in0.0 mm
12:19 AM 57.6°F14.2°C 40.1°F4.5°C 52% 2.2 mph WNW3.5 kmh WNW 6.0 mph9.7 kmh 29.63 in1003.4 mb 0.00 in0.0 mm 0.00 in0.0 mm 0.00 in0.0 mm
12:18 AM 57.4°F14.1°C 39.9°F4.4°C 52% 3.1 mph NW5.0 kmh NW 4.5 mph7.2 kmh 29.64 in1003.7 mb 0.00 in0.0 mm 0.00 in0.0 mm 0.00 in0.0 mm
12:17 AM 57.6°F14.2°C 40.1°F4.5°C 52% 2.2 mph WNW3.5 kmh WNW 4.5 mph7.2 kmh 29.63 in1003.4 mb 0.00 in0.0 mm 0.00 in0.0 mm 0.00 in0.0 mm
12:16 AM 57.4°F14.1°C 39.9°F4.4°C 52% 2.2 mph WNW3.5 kmh WNW 3.1 mph5.0 kmh 29.64 in1003.7 mb 0.00 in0.0 mm 0.00 in0.0 mm 0.00 in0.0 mm
12:15 AM 57.4°F14.1°C 39.9°F4.4°C 52% 2.2 mph WNW3.5 kmh WNW 3.1 mph5.0 kmh 29.63 in1003.4 mb 0.00 in0.0 mm 0.00 in0.0 mm 0.00 in0.0 mm
12:14 AM 57.4°F14.1°C 39.9°F4.4°C 52% 2.2 mph WNW3.5 kmh WNW 3.1 mph5.0 kmh 29.63 in1003.4 mb 0.00 in0.0 mm 0.00 in0.0 mm 0.00 in0.0 mm
12:13 AM 57.6°F14.2°C 40.1°F4.5°C 52% 1.6 mph NW2.6 kmh NW 3.1 mph5.0 kmh 29.64 in1003.7 mb 0.00 in0.0 mm 0.00 in0.0 mm 0.00 in0.0 mm
12:12 AM 57.4°F14.1°C 39.9°F4.4°C 52% 1.6 mph NW2.6 kmh NW 2.2 mph3.5 kmh 29.64 in1003.7 mb 0.00 in0.0 mm 0.00 in0.0 mm 0.00 in0.0 mm
12:11 AM 57.6°F14.2°C 39.6°F4.2°C 51% 0.7 mph NW1.1 kmh NW 1.6 mph2.6 kmh 29.64 in1003.7 mb 0.00 in0.0 mm 0.00 in0.0 mm 0.00 in0.0 mm
12:10 AM 57.7°F14.3°C 39.7°F4.3°C 51% Calm Calm 1.6 mph2.6 kmh 29.63 in1003.4 mb 0.00 in0.0 mm 0.00 in0.0 mm 0.00 in0.0 mm
12:09 AM 57.7°F14.3°C 39.7°F4.3°C 51% Calm Calm 1.6 mph2.6 kmh 29.64 in1003.7 mb 0.00 in0.0 mm 0.00 in0.0 mm 0.00 in0.0 mm
12:08 AM 57.7°F14.3°C 39.7°F4.3°C 51% Calm Calm 1.6 mph2.6 kmh 29.64 in1003.7 mb 0.00 in0.0 mm 0.00 in0.0 mm 0.00 in0.0 mm
12:07 AM 57.7°F14.3°C 39.2°F4.0°C 50% Calm Calm 1.6 mph2.6 kmh 29.63 in1003.4 mb 0.00 in0.0 mm 0.00 in0.0 mm 0.00 in0.0 mm
12:06 AM 58.1°F14.5°C 39.6°F4.2°C 50% Calm Calm 2.2 mph3.5 kmh 29.63 in1003.4 mb 0.00 in0.0 mm 0.00 in0.0 mm 0.00 in0.0 mm
12:05 AM 58.3°F14.6°C 39.7°F4.3°C 50% 0.7 mph N1.1 kmh N 3.8 mph6.1 kmh 29.63 in1003.4 mb 0.00 in0.0 mm 0.00 in0.0 mm 0.00 in0.0 mm
12:04 AM 58.3°F14.6°C 39.7°F4.3°C 50% 0.7 mph NE1.1 kmh NE 3.8 mph6.1 kmh 29.63 in1003.4 mb 0.00 in0.0 mm 0.00 in0.0 mm 0.00 in0.0 mm
12:03 AM 58.3°F14.6°C 39.7°F4.3°C 50% 0.7 mph NE1.1 kmh NE 3.8 mph6.1 kmh 29.63 in1003.4 mb 0.00 in0.0 mm 0.00 in0.0 mm 0.00 in0.0 mm
12:02 AM 58.5°F14.7°C 39.4°F4.1°C 49% Calm Calm 3.8 mph6.1 kmh 29.63 in1003.4 mb 0.00 in0.0 mm 0.00 in0.0 mm 0.00 in0.0 mm
12:01 AM 58.5°F14.7°C 39.4°F4.1°C 49% Calm Calm 3.8 mph6.1 kmh 29.63 in1003.4 mb 0.00 in0.0 mm 0.00 in0.0 mm 0.00 in0.0 mm
12:00 AM 58.6°F14.8°C 39.5°F4.2°C 49% Calm Calm 3.8 mph6.1 kmh 29.63 in1003.4 mb 0.00 in0.0 mm 0.00 in0.0 mm 0.00 in0.0 mm